Time;durP1;ratioP1;P1;durP2;ratioP2;P2;SDS_P1;SDS_P2;PMS_P1;PMS_P2;Temp;Humidity;BMP_temperature;BMP_pressure;BME280_temperature;BME280_humidity;BME280_pressure;Samples;Min_cycle;Max_cycle;Signal;HPM_P1;HPM_P2
2021/08/12 00:00:54;;;;;;;;;;;;;;;27.73;42.01;97796.84;5067824;28;1216;-52
2021/08/12 00:03:19;;;;;;;;;;;;;;;27.78;41.68;97798.13;5068913;28;1355;-51
2021/08/12 00:05:44;;;;;;;;;;;;;;;27.76;41.86;97802.72;5066991;28;1627;-51
2021/08/12 00:08:10;;;;;;;;;;;;;;;27.70;42.04;97795.28;5068859;28;1984;-51
2021/08/12 00:10:35;;;;;;;;;;;;;;;27.71;41.77;97796.94;5069816;28;1189;-51
2021/08/12 00:13:00;;;;;;;;;;;;;;;27.86;41.44;97799.28;5067510;28;1588;-51
2021/08/12 00:15:25;;;;;;;;;;;;;;;27.79;41.65;97796.31;5065559;28;1517;-52
2021/08/12 00:17:52;;;;;;;;;;;;;;;27.69;41.70;97790.09;5068444;28;1082;-51
2021/08/12 00:20:17;;;;;;;;;;;;;;;27.84;41.65;97793.28;5067411;28;1351;-51
2021/08/12 00:22:42;;;;;;;;;;;;;;;27.78;41.89;97794.63;5068774;28;1663;-51
2021/08/12 00:25:08;;;;;;;;;;;;;;;27.80;41.69;97790.03;5067654;28;1029;-52
2021/08/12 00:27:33;;;;;;;;;;;;;;;27.84;41.65;97794.13;5056306;28;1798;-51
2021/08/12 00:29:58;;;;;;;;;;;;;;;27.68;42.03;97793.72;5069032;28;1902;-51
2021/08/12 00:32:23;;;;;;;;;;;;;;;27.71;41.86;97794.31;5069180;28;1120;-52
2021/08/12 00:34:48;;;;;;;;;;;;;;;27.84;41.58;97796.78;5069363;28;1596;-51
2021/08/12 00:37:14;;;;;;;;;;;;;;;27.75;41.58;97798.38;5069089;28;1657;-52
2021/08/12 00:39:39;;;;;;;;;;;;;;;27.70;41.91;97802.38;5072248;28;1292;-51
2021/08/12 00:42:04;;;;;;;;;;;;;;;27.83;41.74;97802.22;5071138;28;1651;-52
2021/08/12 00:44:30;;;;;;;;;;;;;;;27.83;41.60;97802.22;5063504;28;1196;-51
2021/08/12 00:46:55;;;;;;;;;;;;;;;27.80;41.87;97808.59;5073470;28;1131;-52
2021/08/12 00:49:20;;;;;;;;;;;;;;;27.62;42.07;97802.16;5072092;28;1973;-52
2021/08/12 00:51:45;;;;;;;;;;;;;;;27.74;41.77;97806.47;5071575;28;1972;-51
2021/08/12 00:54:11;;;;;;;;;;;;;;;27.88;41.50;97805.28;5072408;28;1104;-51
2021/08/12 00:56:36;;;;;;;;;;;;;;;27.79;41.66;97797.16;5072725;28;1520;-52
2021/08/12 00:59:01;;;;;;;;;;;;;;;27.84;41.79;97796.78;5059672;28;1322;-52
2021/08/12 01:01:26;;;;;;;;;;;;;;;27.91;41.53;97797.09;5062889;28;1592;-52
2021/08/12 01:03:52;;;;;;;;;;;;;;;27.84;41.71;97803.88;5068689;28;1108;-52
2021/08/12 01:06:19;;;;;;;;;;;;;;;27.84;41.56;97807.38;5071921;28;1176;-51
2021/08/12 01:09:03;;;;;;;;;;;;;;;27.81;41.55;97794.41;5072684;28;1897;-52
2021/08/12 01:11:31;;;;;;;;;;;;;;;27.74;41.67;97801.19;5069099;28;1639;-52
2021/08/12 01:14:02;;;;;;;;;;;;;;;27.80;41.79;97800.63;5071841;28;1143;-51
2021/08/12 01:16:28;;;;;;;;;;;;;;;27.80;41.62;97806.78;5070296;28;1647;-52
2021/08/12 01:19:04;;;;;;;;;;;;;;;27.71;41.99;97798.75;5072383;28;1141;-51
2021/08/12 01:21:32;;;;;;;;;;;;;;;27.64;41.94;97809.00;5062337;28;1398;-52
2021/08/12 01:27:00;;;;;;;;;;;;;;;27.90;41.49;97809.50;5055082;28;2067;-86
2021/08/12 01:29:32;;;;;;;;;;;;;;;27.80;41.54;97800.63;5067664;28;1914;-87
2021/08/12 01:32:02;;;;;;;;;;;;;;;27.73;41.63;97802.16;5052932;28;1445;-86
2021/08/12 01:34:27;;;;;;;;;;;;;;;27.87;41.30;97801.81;5073045;28;1832;-87
2021/08/12 01:36:54;;;;;;;;;;;;;;;27.73;41.94;97796.84;5070429;28;1781;-87
2021/08/12 01:39:19;;;;;;;;;;;;;;;27.76;41.80;97807.19;5054518;28;1205;-87
2021/08/12 01:41:46;;;;;;;;;;;;;;;27.80;41.56;97800.63;5072979;28;1791;-87
2021/08/12 01:44:11;;;;;;;;;;;;;;;27.87;41.44;97799.16;5048726;28;1315;-87
2021/08/12 01:46:37;;;;;;;;;;;;;;;27.76;41.58;97807.19;5072137;28;1124;-86
2021/08/12 01:49:02;;;;;;;;;;;;;;;27.89;41.60;97807.84;5070429;28;1906;-86
2021/08/12 01:51:27;;;;;;;;;;;;;;;27.87;41.55;97809.75;5072685;28;1686;-86
2021/08/12 01:53:52;;;;;;;;;;;;;;;27.73;41.79;97796.84;5067634;28;1368;-87
2021/08/12 01:56:18;;;;;;;;;;;;;;;27.77;41.71;97799.09;5068726;28;1233;-87
2021/08/12 01:58:43;;;;;;;;;;;;;;;27.83;41.69;97797.75;5069481;28;1676;-86
2021/08/12 02:01:08;;;;;;;;;;;;;;;27.80;41.58;97808.59;5073055;28;1865;-86
2021/08/12 02:03:34;;;;;;;;;;;;;;;27.70;42.02;97800.56;5064656;28;1535;-86
2021/08/12 02:05:59;;;;;;;;;;;;;;;27.75;41.86;97792.25;5059846;28;1672;-86
2021/08/12 02:08:24;;;;;;;;;;;;;;;27.77;41.60;97790.31;5065240;28;1898;-86
2021/08/12 02:10:49;;;;;;;;;;;;;;;27.67;41.80;97789.41;5053540;28;1323;-87
2021/08/12 02:13:15;;;;;;;;;;;;;;;27.76;41.57;97794.75;5071697;28;1653;-87
2021/08/12 02:15:40;;;;;;;;;;;;;;;27.86;41.25;97797.47;5072335;28;1340;-87
2021/08/12 02:18:05;;;;;;;;;;;;;;;27.75;41.69;97795.75;5070936;28;1276;-87
2021/08/12 02:20:30;;;;;;;;;;;;;;;27.68;41.90;97785.78;5064261;28;1593;-87
2021/08/12 02:22:59;;;;;;;;;;;;;;;27.80;41.42;97796.16;5070148;28;1625;-87
2021/08/12 02:25:34;;;;;;;;;;;;;;;27.87;41.40;97793.00;5063459;28;1106;-86
2021/08/12 02:28:06;;;;;;;;;;;;;;;27.69;41.53;97788.28;5067292;28;1914;-86
2021/08/12 02:30:34;;;;;;;;;;;;;;;27.74;41.64;97782.63;5064720;28;1113;-86
2021/08/12 02:32:59;;;;;;;;;;;;;;;27.73;41.61;97784.44;5071331;28;1222;-87
2021/08/12 02:35:24;;;;;;;;;;;;;;;27.70;41.71;97784.69;5071148;28;1120;-87
2021/08/12 02:37:49;;;;;;;;;;;;;;;27.71;41.53;97783.69;5063213;28;1771;-87
2021/08/12 02:40:15;;;;;;;;;;;;;;;27.85;41.27;97785.19;5064892;28;1220;-86
2021/08/12 02:42:40;;;;;;;;;;;;;;;27.70;41.61;97778.53;5069705;28;1687;-87
2021/08/12 02:45:06;;;;;;;;;;;;;;;27.73;41.69;97780.94;5071157;28;1471;-87
2021/08/12 02:47:31;;;;;;;;;;;;;;;27.73;41.59;97787.09;5069061;28;1290;-87
2021/08/12 02:49:56;;;;;;;;;;;;;;;27.88;41.50;97784.94;5070629;28;1906;-87
2021/08/12 02:52:21;;;;;;;;;;;;;;;27.82;41.53;97780.16;5060427;28;1804;-87
2021/08/12 02:54:47;;;;;;;;;;;;;;;27.71;41.51;97778.41;5069675;28;1176;-87
2021/08/12 02:57:12;;;;;;;;;;;;;;;27.87;41.39;97785.91;5061989;28;1774;-87
2021/08/12 02:59:37;;;;;;;;;;;;;;;27.73;41.39;97780.94;5064139;28;1018;-87
2021/08/12 03:02:03;;;;;;;;;;;;;;;27.73;41.83;97781.78;5067314;28;1144;-87
2021/08/12 03:04:28;;;;;;;;;;;;;;;27.76;41.68;97785.97;5069594;28;1706;-86
2021/08/12 03:06:54;;;;;;;;;;;;;;;27.66;41.79;97787.69;5065933;28;1274;-87
2021/08/12 03:09:20;;;;;;;;;;;;;;;27.73;41.56;97781.78;5068847;28;1906;-87
2021/08/12 03:11:45;;;;;;;;;;;;;;;27.84;41.18;97790.63;5069436;28;1658;-87
2021/08/12 03:14:10;;;;;;;;;;;;;;;27.85;41.59;97792.31;5068212;28;1623;-87
2021/08/12 03:16:37;;;;;;;;;;;;;;;27.78;41.33;97787.53;5070877;28;1215;-87
2021/08/12 03:19:02;;;;;;;;;;;;;;;27.68;41.64;97783.97;5061637;28;1292;-87
2021/08/12 03:21:27;;;;;;;;;;;;;;;27.81;41.45;97791.75;5069128;28;1686;-87
2021/08/12 03:23:52;;;;;;;;;;;;;;;27.80;41.19;97785.56;5070585;28;1753;-87
2021/08/12 03:26:18;;;;;;;;;;;;;;;27.71;41.77;97778.41;5065442;28;2432;-87
2021/08/12 03:28:43;;;;;;;;;;;;;;;27.73;41.54;97787.09;5066237;28;2015;-87
2021/08/12 03:31:08;;;;;;;;;;;;;;;27.81;41.18;97784.63;5070428;28;1168;-87
2021/08/12 03:33:33;;;;;;;;;;;;;;;27.68;41.73;97777.84;5070515;28;1058;-87
2021/08/12 03:35:58;;;;;;;;;;;;;;;27.76;41.46;97778.88;5062451;28;1556;-87
2021/08/12 03:38:24;;;;;;;;;;;;;;;27.69;41.66;97780.34;5069370;28;1438;-87
2021/08/12 03:40:49;;;;;;;;;;;;;;;27.70;41.79;97783.84;5068906;28;1665;-87
2021/08/12 03:43:14;;;;;;;;;;;;;;;27.69;41.58;97779.50;5067184;28;1506;-87
2021/08/12 03:45:39;;;;;;;;;;;;;;;27.64;41.92;97771.91;5063797;28;1285;-87
2021/08/12 03:48:05;;;;;;;;;;;;;;;27.71;41.66;97780.22;5068032;28;1969;-87
2021/08/12 03:50:30;;;;;;;;;;;;;;;27.74;41.77;97777.31;5071288;28;1050;-87
2021/08/12 03:52:55;;;;;;;;;;;;;;;27.68;41.59;97772.53;5068364;28;1567;-87
2021/08/12 03:55:21;;;;;;;;;;;;;;;27.86;41.45;97780.72;5070148;28;1337;-87
2021/08/12 03:57:46;;;;;;;;;;;;;;;27.77;41.60;97782.34;5069741;28;1489;-87
2021/08/12 04:00:12;;;;;;;;;;;;;;;27.80;41.29;97782.09;5068118;28;1558;-87
2021/08/12 04:02:37;;;;;;;;;;;;;;;27.70;41.76;97782.03;5066204;28;1148;-86
2021/08/12 04:05:02;;;;;;;;;;;;;;;27.75;41.63;97789.59;5070789;28;1195;-87
2021/08/12 04:07:28;;;;;;;;;;;;;;;27.74;41.67;97787.91;5069895;28;1501;-87
2021/08/12 04:09:53;;;;;;;;;;;;;;;27.64;41.81;97786.97;5070414;28;1902;-87
2021/08/12 04:12:18;;;;;;;;;;;;;;;27.71;41.66;97777.56;5072847;28;1713;-87
2021/08/12 04:14:43;;;;;;;;;;;;;;;27.64;41.82;97779.00;5073157;28;1302;-87
2021/08/12 04:17:09;;;;;;;;;;;;;;;27.71;41.53;97785.50;5072546;28;1523;-87
2021/08/12 04:19:34;;;;;;;;;;;;;;;27.63;41.74;97782.63;5075145;28;1160;-87
2021/08/12 04:21:59;;;;;;;;;;;;;;;27.75;41.48;97785.13;5073139;28;1641;-87
2021/08/12 04:24:24;;;;;;;;;;;;;;;27.64;41.88;97787.78;5072713;28;1517;-87
2021/08/12 04:26:49;;;;;;;;;;;;;;;27.70;41.71;97787.31;5073612;28;1535;-87
2021/08/12 04:29:17;;;;;;;;;;;;;;;27.73;41.30;97788.91;5073537;28;1914;-87
2021/08/12 04:31:42;;;;;;;;;;;;;;;27.65;41.40;97786.84;5068629;28;1169;-87
2021/08/12 04:34:07;;;;;;;;;;;;;;;27.66;41.75;97782.41;5073657;28;1370;-87
2021/08/12 04:36:33;;;;;;;;;;;;;;;27.67;41.49;97781.47;5073223;28;1688;-87
2021/08/12 04:38:58;;;;;;;;;;;;;;;27.69;41.46;97782.16;5074109;28;1377;-87
2021/08/12 04:41:24;;;;;;;;;;;;;;;27.76;41.46;97781.50;5075369;28;1153;-87
2021/08/12 04:43:49;;;;;;;;;;;;;;;27.66;41.87;97790.34;5072513;28;1725;-87
2021/08/12 04:46:15;;;;;;;;;;;;;;;27.94;40.96;97794.19;5070697;28;1483;-87
2021/08/12 04:48:40;;;;;;;;;;;;;;;27.69;41.33;97790.94;5074285;28;1979;-87
2021/08/12 04:51:05;;;;;;;;;;;;;;;27.67;41.60;97789.41;5073512;28;1187;-87
2021/08/12 04:53:30;;;;;;;;;;;;;;;27.76;41.57;97793.94;5072660;28;1497;-87
2021/08/12 04:55:55;;;;;;;;;;;;;;;27.73;41.59;97791.53;5074575;28;1136;-87
2021/08/12 04:58:20;;;;;;;;;;;;;;;27.63;41.56;97791.41;5072555;28;1579;-87
2021/08/12 05:00:46;;;;;;;;;;;;;;;27.66;41.36;97795.66;5070186;28;1673;-87
2021/08/12 05:03:11;;;;;;;;;;;;;;;27.68;41.47;97799.03;5073378;28;1082;-87
2021/08/12 05:05:36;;;;;;;;;;;;;;;27.71;41.57;97801.41;5073241;28;1227;-87
2021/08/12 05:08:01;;;;;;;;;;;;;;;27.78;41.28;97800.78;5074402;28;1331;-87
2021/08/12 05:10:27;;;;;;;;;;;;;;;27.70;41.40;97797.91;5070796;28;1503;-87
2021/08/12 05:12:52;;;;;;;;;;;;;;;27.67;41.46;97808.78;5069276;28;1571;-87
2021/08/12 05:15:17;;;;;;;;;;;;;;;27.68;41.44;97806.97;5066544;28;1172;-87
2021/08/12 05:17:43;;;;;;;;;;;;;;;27.67;41.72;97810.59;5068779;28;1574;-87
2021/08/12 05:20:08;;;;;;;;;;;;;;;27.64;41.49;97806.34;5072483;28;1014;-87
2021/08/12 05:22:33;;;;;;;;;;;;;;;27.83;41.20;97813.66;5070685;28;1151;-87
2021/08/12 05:24:58;;;;;;;;;;;;;;;27.69;41.39;97817.44;5070500;28;1247;-87
2021/08/12 05:27:24;;;;;;;;;;;;;;;27.67;41.59;97810.59;5070134;28;1586;-87
2021/08/12 05:29:49;;;;;;;;;;;;;;;27.66;41.27;97814.19;5070748;28;1909;-87
2021/08/12 05:32:14;;;;;;;;;;;;;;;27.69;41.39;97819.25;5071818;28;1112;-87
2021/08/12 05:34:39;;;;;;;;;;;;;;;27.70;41.63;97820.94;5071228;28;1292;-87
2021/08/12 05:37:04;;;;;;;;;;;;;;;27.70;41.44;97819.13;5070569;28;1671;-88
2021/08/12 05:39:30;;;;;;;;;;;;;;;27.64;41.75;97819.59;5071804;28;1115;-88
2021/08/12 05:41:55;;;;;;;;;;;;;;;27.61;41.50;97819.84;5070468;28;1502;-88
2021/08/12 05:44:20;;;;;;;;;;;;;;;27.68;41.51;97826.38;5071442;28;1429;-88
2021/08/12 05:46:45;;;;;;;;;;;;;;;27.66;41.55;97820.31;5071906;28;1105;-87
2021/08/12 05:49:11;;;;;;;;;;;;;;;27.62;41.69;97821.53;5069208;28;1961;-87
2021/08/12 05:51:37;;;;;;;;;;;;;;;27.62;41.86;97826.84;5071273;28;1266;-88
2021/08/12 05:54:02;;;;;;;;;;;;;;;27.63;41.62;97830.31;5066106;28;1417;-87
2021/08/12 05:56:28;;;;;;;;;;;;;;;27.58;41.67;97825.44;5064345;28;1153;-87
2021/08/12 05:58:53;;;;;;;;;;;;;;;27.71;41.63;97830.56;5068643;28;1808;-87
2021/08/12 06:01:18;;;;;;;;;;;;;;;27.63;41.57;97828.50;5071916;28;1113;-86
2021/08/12 06:03:43;;;;;;;;;;;;;;;27.67;41.45;97829.16;5070345;28;1451;-87
2021/08/12 06:06:08;;;;;;;;;;;;;;;27.53;41.88;97833.75;5065632;28;1414;-86
2021/08/12 06:08:34;;;;;;;;;;;;;;;27.59;41.70;97836.88;5068776;28;1973;-87
2021/08/12 06:10:59;;;;;;;;;;;;;;;27.63;41.71;97841.75;5071568;28;1108;-87
2021/08/12 06:13:24;;;;;;;;;;;;;;;27.53;41.95;97838.19;5063561;28;1610;-85
2021/08/12 06:15:50;;;;;;;;;;;;;;;27.54;42.01;97843.38;5063709;28;1235;-87
2021/08/12 06:18:15;;;;;;;;;;;;;;;27.59;41.73;97842.16;5067121;28;1300;-87
2021/08/12 06:20:40;;;;;;;;;;;;;;;27.50;41.74;97835.81;5068280;28;1359;-87
2021/08/12 06:23:06;;;;;;;;;;;;;;;27.59;41.85;97839.50;5070198;28;1550;-86
2021/08/12 06:25:31;;;;;;;;;;;;;;;27.61;41.74;97840.22;5068485;28;1390;-87
2021/08/12 06:27:57;;;;;;;;;;;;;;;27.62;41.82;97839.25;5060102;28;1498;-87
2021/08/12 06:30:22;;;;;;;;;;;;;;;27.51;41.99;97837.50;5069198;28;1973;-87
2021/08/12 06:32:47;;;;;;;;;;;;;;;27.65;41.68;97836.31;5069351;28;1164;-87
2021/08/12 06:35:12;;;;;;;;;;;;;;;27.54;42.00;97832.75;5069350;28;1104;-87
2021/08/12 06:37:44;;;;;;;;;;;;;;;27.57;41.96;97841.41;5068943;28;1525;-88
2021/08/12 06:40:10;;;;;;;;;;;;;;;27.64;41.36;97838.13;5068997;28;1074;-87
2021/08/12 06:42:35;;;;;;;;;;;;;;;27.59;41.57;97831.56;5067400;28;1594;-88
2021/08/12 06:45:00;;;;;;;;;;;;;;;27.49;42.01;97829.69;5061699;28;1188;-88
2021/08/12 06:47:25;;;;;;;;;;;;;;;27.49;41.95;97832.31;5068592;28;1284;-88
2021/08/12 06:49:50;;;;;;;;;;;;;;;27.57;41.87;97836.13;5063225;28;1977;-88
2021/08/12 06:52:16;;;;;;;;;;;;;;;27.58;41.95;97832.53;5067489;28;1571;-88
2021/08/12 06:54:41;;;;;;;;;;;;;;;27.52;41.88;97828.56;5067601;28;1242;-88
2021/08/12 06:57:06;;;;;;;;;;;;;;;27.53;41.95;97827.59;5061636;28;1636;-88
2021/08/12 06:59:31;;;;;;;;;;;;;;;27.53;41.75;97828.44;5060630;28;1377;-87
2021/08/12 07:01:57;;;;;;;;;;;;;;;27.55;41.99;97831.78;5067301;28;1614;-87
2021/08/12 07:04:22;;;;;;;;;;;;;;;27.65;41.61;97826.59;5064755;28;1302;-87
2021/08/12 07:06:47;;;;;;;;;;;;;;;27.51;41.96;97829.53;5067744;28;1354;-87
2021/08/12 07:09:12;;;;;;;;;;;;;;;27.54;41.87;97830.13;5066992;28;1971;-86
2021/08/12 07:11:37;;;;;;;;;;;;;;;27.45;42.10;97838.00;5066388;28;1660;-87
2021/08/12 07:14:03;;;;;;;;;;;;;;;27.43;42.17;97843.41;5068566;28;1167;-87
2021/08/12 07:16:28;;;;;;;;;;;;;;;27.54;41.93;97837.22;5067472;28;1256;-87
2021/08/12 07:18:53;;;;;;;;;;;;;;;27.47;42.09;97844.00;5065745;28;1777;-87
2021/08/12 07:21:19;;;;;;;;;;;;;;;27.57;41.91;97846.72;5068248;28;1290;-88
2021/08/12 07:23:45;;;;;;;;;;;;;;;27.44;41.85;97847.75;5023502;28;1072527;-88
2021/08/12 07:26:13;;;;;;;;;;;;;;;27.52;41.75;97847.13;5062135;28;1173;-88
2021/08/12 07:28:38;;;;;;;;;;;;;;;27.47;42.17;97851.94;5035230;28;1995;-88
2021/08/12 07:31:04;;;;;;;;;;;;;;;27.72;41.46;97853.44;5068831;28;1170;-88
2021/08/12 07:33:29;;;;;;;;;;;;;;;28.26;40.21;97847.13;5069112;28;1191;-86
2021/08/12 07:35:54;;;;;;;;;;;;;;;28.26;40.03;97853.25;5060214;28;1525;-88
2021/08/12 07:38:19;;;;;;;;;;;;;;;28.41;40.09;97845.84;5067573;28;1521;-88
2021/08/12 07:40:44;;;;;;;;;;;;;;;28.26;40.67;97849.78;5068826;28;1109;-87
2021/08/12 07:43:10;;;;;;;;;;;;;;;28.06;40.78;97852.31;5065226;28;1565;-87
2021/08/12 07:45:35;;;;;;;;;;;;;;;28.16;40.75;97855.03;5066686;28;1892;-87
2021/08/12 07:48:00;;;;;;;;;;;;;;;27.99;41.23;97859.09;5068174;28;1268;-90
2021/08/12 07:50:25;;;;;;;;;;;;;;;28.00;41.11;97852.81;5049915;28;1897;-91
2021/08/12 07:52:54;;;;;;;;;;;;;;;28.01;40.99;97859.81;5054922;28;1239;-91
2021/08/12 07:55:19;;;;;;;;;;;;;;;27.93;41.14;97867.56;5057661;28;1175;-91
2021/08/12 07:57:46;;;;;;;;;;;;;;;28.03;41.13;97852.56;5036094;28;1543;-91
2021/08/12 08:00:11;;;;;;;;;;;;;;;27.99;40.88;97853.81;5051743;28;1169;-92
2021/08/12 08:02:40;;;;;;;;;;;;;;;27.99;41.20;97845.00;5057125;28;1341;-92
2021/08/12 08:05:06;;;;;;;;;;;;;;;27.99;41.10;97851.16;5052296;28;1618;-91
2021/08/12 08:07:31;;;;;;;;;;;;;;;27.98;41.06;97849.47;5039177;28;1305;-92
2021/08/12 08:09:56;;;;;;;;;;;;;;;28.02;41.16;97850.88;5065212;28;1894;-92
2021/08/12 08:12:24;;;;;;;;;;;;;;;27.93;41.16;97848.16;5066209;28;1527;-91
2021/08/12 08:14:50;;;;;;;;;;;;;;;28.24;40.40;97839.28;5059522;28;1138;-92
2021/08/12 08:17:18;;;;;;;;;;;;;;;28.07;41.12;97851.34;5067514;28;1239;-92
2021/08/12 08:19:43;;;;;;;;;;;;;;;27.99;41.24;97845.00;5061449;28;1188;-92
2021/08/12 08:22:08;;;;;;;;;;;;;;;28.08;40.87;97846.88;5064348;28;1571;-91
2021/08/12 08:24:34;;;;;;;;;;;;;;;28.01;40.80;97843.91;5066807;28;1714;-90
2021/08/12 08:26:59;;;;;;;;;;;;;;;28.00;40.96;97842.22;5058165;28;1638;-90
2021/08/12 08:29:24;;;;;;;;;;;;;;;28.01;41.08;97840.41;5060572;28;1984;-90
2021/08/12 08:31:49;;;;;;;;;;;;;;;27.92;41.22;97836.72;5066277;28;1191;-90
2021/08/12 08:34:14;;;;;;;;;;;;;;;28.02;40.93;97834.13;5064327;28;1117;-90
2021/08/12 08:36:40;;;;;;;;;;;;;;;27.94;41.15;97840.09;5062586;28;1520;-89
2021/08/12 08:39:05;;;;;;;;;;;;;;;27.94;40.88;97841.88;5066260;28;1277;-89
2021/08/12 08:41:30;;;;;;;;;;;;;;;27.97;40.98;97833.69;5064750;28;1452;-89
2021/08/12 08:43:55;;;;;;;;;;;;;;;27.93;41.32;97837.56;5061269;28;1268;-89
2021/08/12 08:46:21;;;;;;;;;;;;;;;27.92;40.95;97839.38;5067103;28;1235;-89
2021/08/12 08:48:46;;;;;;;;;;;;;;;28.00;41.00;97830.78;5074624;28;1883;-89
2021/08/12 08:51:12;;;;;;;;;;;;;;;27.94;40.95;97834.78;5083954;28;1468;-89
2021/08/12 08:53:38;;;;;;;;;;;;;;;27.96;40.94;97832.84;5080537;28;1134;-89
2021/08/12 08:56:04;;;;;;;;;;;;;;;27.95;41.15;97825.84;5058224;28;1194;-90
2021/08/12 08:58:29;;;;;;;;;;;;;;;27.98;41.03;97822.97;5068552;28;1564;-89
2021/08/12 09:00:54;;;;;;;;;;;;;;;28.01;41.10;97830.63;5048270;28;1416;-89
2021/08/12 09:03:20;;;;;;;;;;;;;;;28.02;40.93;97829.66;5050203;28;1447;-89
2021/08/12 09:05:45;;;;;;;;;;;;;;;28.00;41.02;97826.31;5069793;28;1563;-89
2021/08/12 09:08:10;;;;;;;;;;;;;;;27.99;40.92;97829.09;5066078;28;1455;-89
2021/08/12 09:10:37;;;;;;;;;;;;;;;27.97;40.82;97828.41;5066721;28;1902;-89
2021/08/12 09:13:03;;;;;;;;;;;;;;;27.96;41.04;97826.69;5068509;28;1692;-89
2021/08/12 09:15:36;;;;;;;;;;;;;;;28.04;40.82;97817.16;5064501;28;1176;-89
2021/08/12 09:18:02;;;;;;;;;;;;;;;27.99;41.09;97819.34;5066890;28;1404;-89
2021/08/12 09:20:27;;;;;;;;;;;;;;;28.01;40.91;97820.03;5067653;28;1647;-89
2021/08/12 09:22:53;;;;;;;;;;;;;;;28.00;40.84;97830.78;5070357;28;1242;-89
2021/08/12 09:25:27;;;;;;;;;;;;;;;27.96;41.05;97826.69;5062401;28;974;-89
2021/08/12 09:28:16;;;;;;;;;;;;;;;27.94;40.81;97818.88;5059084;28;1636;-89
2021/08/12 09:30:44;;;;;;;;;;;;;;;28.00;40.87;97814.88;5066173;28;1222;-89
2021/08/12 09:33:16;;;;;;;;;;;;;;;28.02;40.93;97812.91;5070352;28;1251;-90
2021/08/12 09:35:41;;;;;;;;;;;;;;;28.02;41.06;97818.22;5070002;28;1371;-89
2021/08/12 09:38:08;;;;;;;;;;;;;;;28.09;40.75;97819.38;5063204;28;1651;-89
2021/08/12 09:40:33;;;;;;;;;;;;;;;28.08;40.60;97815.06;5065715;28;1227;-89
2021/08/12 09:43:00;;;;;;;;;;;;;;;28.04;40.74;97817.16;5064716;28;1584;-89
2021/08/12 09:45:25;;;;;;;;;;;;;;;28.08;40.92;97815.91;5070246;28;1513;-89
2021/08/12 09:47:51;;;;;;;;;;;;;;;28.09;40.63;97814.91;5065809;28;1230;-89
2021/08/12 09:50:42;;;;;;;;;;;;;;;28.12;40.60;97816.47;5067019;28;1906;-89
2021/08/12 09:53:08;;;;;;;;;;;;;;;28.12;40.62;97818.28;5065708;28;1404;-89
2021/08/12 09:55:37;;;;;;;;;;;;;;;28.07;40.67;97818.69;5048093;28;1323;-89
2021/08/12 09:58:06;;;;;;;;;;;;;;;28.03;40.81;97818.09;5061222;28;1500;-89
2021/08/12 10:00:38;;;;;;;;;;;;;;;28.11;40.45;97820.09;5069137;28;1225;-89
2021/08/12 10:03:19;;;;;;;;;;;;;;;28.12;40.62;97820.94;5064005;28;1269;-89
2021/08/12 10:05:44;;;;;;;;;;;;;;;27.99;41.01;97819.34;5068683;28;1553;-89
2021/08/12 10:08:09;;;;;;;;;;;;;;;28.02;40.83;97819.06;5062712;28;1312;-89
2021/08/12 10:10:34;;;;;;;;;;;;;;;28.12;40.84;97812.97;5069521;28;1902;-88
2021/08/12 10:13:00;;;;;;;;;;;;;;;28.08;40.73;97813.25;5068747;28;1617;-88
2021/08/12 10:15:32;;;;;;;;;;;;;;;28.12;40.42;97816.47;5062418;28;1297;-89
2021/08/12 10:17:57;;;;;;;;;;;;;;;28.06;40.90;97809.06;5044488;28;1408;-89
2021/08/12 10:20:23;;;;;;;;;;;;;;;28.07;40.66;97808.91;5063619;28;1579;-89
2021/08/12 10:22:48;;;;;;;;;;;;;;;28.19;40.38;97808.84;5058046;28;1359;-89
2021/08/12 10:25:14;;;;;;;;;;;;;;;28.14;40.58;97801.28;5069544;28;1208;-89
2021/08/12 10:27:40;;;;;;;;;;;;;;;28.12;40.45;97797.91;5068517;28;1606;-88
2021/08/12 10:30:05;;;;;;;;;;;;;;;28.14;40.74;97803.94;5066279;28;1913;-89
2021/08/12 10:32:30;;;;;;;;;;;;;;;28.16;40.77;97803.81;5065666;28;1223;-89
2021/08/12 10:34:55;;;;;;;;;;;;;;;28.14;40.67;97801.28;5062788;28;1317;-89
2021/08/12 10:37:21;;;;;;;;;;;;;;;28.14;40.35;97801.28;5068396;28;1522;-89
2021/08/12 10:39:46;;;;;;;;;;;;;;;28.14;40.67;97795.97;5061806;28;1446;-89
2021/08/12 10:42:11;;;;;;;;;;;;;;;28.20;40.42;97800.78;5058420;28;1529;-90
2021/08/12 10:44:36;;;;;;;;;;;;;;;28.08;40.43;97805.28;5064288;28;1317;-89
2021/08/12 10:47:02;;;;;;;;;;;;;;;28.03;40.57;97802.19;5069518;28;1354;-89
2021/08/12 10:49:34;;;;;;;;;;;;;;;28.10;40.74;97794.56;5061368;28;1993;-89
2021/08/12 10:52:02;;;;;;;;;;;;;;;28.16;40.63;97795.84;5043347;28;1578;-89
2021/08/12 10:54:27;;;;;;;;;;;;;;;28.14;40.67;97790.69;5061580;28;1625;-89
2021/08/12 10:57:11;;;;;;;;;;;;;;;28.12;40.61;97783.81;5061605;28;1566;-89
2021/08/12 10:59:37;;;;;;;;;;;;;;;28.08;40.64;97778.78;5062690;28;1432;-89
2021/08/12 11:02:05;;;;;;;;;;;;;;;28.13;40.64;97785.50;5063166;28;1187;-88
2021/08/12 11:04:48;;;;;;;;;;;;;;;27.93;40.97;97777.44;5048249;28;1293;-89
2021/08/12 11:07:33;;;;;;;;;;;;;;;28.13;40.65;97777.56;5064303;28;1517;-89
2021/08/12 11:09:59;;;;;;;;;;;;;;;28.16;40.60;97777.28;5066493;28;1893;-90
2021/08/12 11:12:34;;;;;;;;;;;;;;;28.08;40.80;97772.63;5059590;28;1564;-88
2021/08/12 11:14:59;;;;;;;;;;;;;;;28.14;40.70;97768.63;5057919;28;1316;-89
2021/08/12 11:17:25;;;;;;;;;;;;;;;28.16;40.56;97766.69;5066325;28;1668;-89
2021/08/12 11:19:50;;;;;;;;;;;;;;;28.13;40.60;97764.31;5050643;28;1549;-89
2021/08/12 11:22:25;;;;;;;;;;;;;;;28.15;40.76;97757.88;5061613;28;1244;-88
2021/08/12 11:24:53;;;;;;;;;;;;;;;28.13;40.79;97762.50;5041894;28;1590;-88
2021/08/12 11:27:34;;;;;;;;;;;;;;;28.20;40.69;97752.16;5040676;28;1851;-89
2021/08/12 11:30:20;;;;;;;;;;;;;;;28.13;40.75;97753.69;5049230;28;1910;-88
2021/08/12 11:33:08;;;;;;;;;;;;;;;28.18;40.64;97754.13;5067142;28;1443;-88
2021/08/12 11:35:52;;;;;;;;;;;;;;;28.14;40.46;97758.03;5061801;28;1278;-88
2021/08/12 11:38:17;;;;;;;;;;;;;;;28.19;40.36;97756.63;5054985;28;1545;-89
2021/08/12 11:40:42;;;;;;;;;;;;;;;28.17;40.74;97758.59;5060538;28;1140;-89
2021/08/12 11:43:08;;;;;;;;;;;;;;;28.15;40.48;97754.41;5052343;28;1583;-88
2021/08/12 11:45:33;;;;;;;;;;;;;;;28.13;40.64;97759.84;5051969;28;1487;-87
2021/08/12 11:47:58;;;;;;;;;;;;;;;28.18;40.39;97760.25;5061436;28;1329;-88
2021/08/12 11:50:27;;;;;;;;;;;;;;;28.15;40.70;97759.69;5061824;28;1890;-88
2021/08/12 11:52:52;;;;;;;;;;;;;;;28.14;40.76;97750.91;5060860;28;1566;-88
2021/08/12 11:55:21;;;;;;;;;;;;;;;28.16;40.85;97756.06;5061124;28;1169;-88
2021/08/12 11:57:50;;;;;;;;;;;;;;;28.15;40.65;97754.41;5056946;28;1627;-89
2021/08/12 12:00:21;;;;;;;;;;;;;;;28.12;40.74;97749.34;5060364;28;1150;-88
2021/08/12 12:02:59;;;;;;;;;;;;;;;28.11;40.80;97745.84;5047445;28;1255;-88
2021/08/12 12:05:25;;;;;;;;;;;;;;;28.10;40.61;97747.66;5061791;28;1538;-88
2021/08/12 12:08:05;;;;;;;;;;;;;;;28.17;40.73;97747.13;5069340;22;1627;-88
2021/08/12 12:10:33;;;;;;;;;;;;;;;28.16;40.58;97743.66;5059372;28;1894;-88
2021/08/12 12:13:19;;;;;;;;;;;;;;;28.11;40.79;97743.19;5062470;28;1623;-88
2021/08/12 12:15:50;;;;;;;;;;;;;;;28.15;40.71;97751.75;5047196;28;1211;-88
2021/08/12 12:18:34;;;;;;;;;;;;;;;28.12;40.66;97750.19;5051317;28;1309;-88
2021/08/12 12:21:03;;;;;;;;;;;;;;;28.03;40.95;97751.81;5060348;28;1604;-88
2021/08/12 12:23:29;;;;;;;;;;;;;;;28.08;40.70;97752.28;5061551;28;1496;-88
2021/08/12 12:25:54;;;;;;;;;;;;;;;28.13;40.92;97749.22;5040613;28;1214;-88
2021/08/12 12:28:19;;;;;;;;;;;;;;;28.13;40.90;97749.22;5066142;28;1592;-88
2021/08/12 12:30:44;;;;;;;;;;;;;;;28.07;40.93;97755.88;5057005;28;1898;-88
2021/08/12 12:33:10;;;;;;;;;;;;;;;28.14;40.79;97756.22;5070687;28;1158;-88
2021/08/12 12:35:36;;;;;;;;;;;;;;;28.17;40.83;97761.25;5071692;28;1140;-88
2021/08/12 12:38:02;;;;;;;;;;;;;;;28.13;40.65;97749.22;5057543;28;1534;-88
2021/08/12 12:40:33;;;;;;;;;;;;;;;28.18;40.64;97756.78;5045675;28;1223;-88
2021/08/12 12:42:58;;;;;;;;;;;;;;;28.16;40.67;97748.13;5058646;28;1455;-88
2021/08/12 12:45:23;;;;;;;;;;;;;;;28.19;40.56;97746.03;5072315;28;1207;-87
2021/08/12 12:47:48;;;;;;;;;;;;;;;28.18;40.57;97743.50;5055921;28;1535;-87
2021/08/12 12:50:17;;;;;;;;;;;;;;;28.20;40.46;97741.56;5071143;28;1965;-86
2021/08/12 12:52:58;;;;;;;;;;;;;;;28.14;40.50;97737.66;5059144;28;1077;-87
2021/08/12 12:55:24;;;;;;;;;;;;;;;28.15;40.90;97741.13;5070055;28;1635;-87
2021/08/12 12:57:49;;;;;;;;;;;;;;;28.16;40.85;97734.84;5059880;28;1545;-88